createdAt,value
2019-03-06T00:03:10.174Z,13.00
2019-03-06T00:08:09.990Z,11.50
2019-03-06T00:13:09.618Z,10.30
2019-03-06T00:18:09.242Z,9.97
2019-03-06T00:23:08.818Z,9.90
2019-03-06T00:28:08.525Z,19.97
2019-03-06T00:33:08.079Z,10.50
2019-03-06T00:38:07.644Z,10.03
2019-03-06T00:43:07.542Z,11.13
2019-03-06T00:48:07.077Z,8.70
2019-03-06T00:53:06.616Z,15.10
2019-03-06T00:58:06.174Z,17.23
2019-03-06T01:03:07.086Z,14.27
2019-03-06T01:08:06.794Z,14.90
2019-03-06T01:13:06.345Z,12.63
2019-03-06T01:18:06.350Z,18.10
2019-03-06T01:23:05.970Z,14.77
2019-03-06T01:28:05.505Z,13.23
2019-03-06T01:33:14.934Z,12.27
2019-03-06T01:38:32.161Z,12.80
2019-03-06T01:43:36.536Z,13.53
2019-03-06T01:48:36.081Z,12.30
2019-03-06T01:53:35.635Z,14.00
2019-03-06T01:58:35.161Z,13.70
2019-03-06T02:03:34.722Z,12.10
2019-03-06T02:08:34.271Z,12.13
2019-03-06T02:13:33.833Z,14.60
2019-03-06T02:18:33.413Z,11.90
2019-03-06T02:23:33.007Z,10.87
2019-03-06T02:28:32.559Z,20.00
2019-03-06T02:33:32.119Z,12.30
2019-03-06T02:38:31.683Z,13.00
2019-03-06T02:43:31.292Z,21.20
2019-03-06T02:48:30.835Z,13.17
2019-03-06T02:53:30.391Z,15.57
2019-03-06T02:58:46.014Z,13.27
2019-03-06T03:04:17.157Z,12.00
2019-03-06T03:09:18.330Z,15.73
2019-03-06T03:14:17.914Z,15.90
2019-03-06T03:19:17.526Z,11.23
2019-03-06T03:24:17.241Z,14.40
2019-03-06T03:29:16.774Z,14.20
2019-03-06T03:34:16.334Z,11.67
2019-03-06T03:39:15.875Z,19.47
2019-03-06T03:44:15.414Z,12.30
2019-03-06T03:49:14.974Z,14.23
2019-03-06T03:54:14.596Z,17.23
2019-03-06T03:59:14.267Z,12.10
2019-03-06T04:04:14.190Z,12.93
2019-03-06T04:09:13.728Z,11.93
2019-03-06T04:14:13.297Z,16.23
2019-03-06T04:19:12.830Z,11.00
2019-03-06T04:24:12.403Z,25.10
2019-03-06T04:29:12.241Z,13.07
2019-03-06T04:34:11.827Z,12.03
2019-03-06T04:39:11.373Z,13.63
2019-03-06T04:44:11.011Z,16.30
2019-03-06T04:49:10.540Z,16.30
2019-03-06T04:54:10.237Z,12.47
2019-03-06T04:59:09.845Z,16.40
2019-03-06T05:04:10.449Z,16.23
2019-03-06T05:09:09.999Z,16.90
2019-03-06T05:14:09.545Z,19.97
2019-03-06T05:19:09.084Z,14.43
2019-03-06T05:24:08.714Z,15.90
2019-03-06T05:29:08.513Z,18.07
2019-03-06T05:34:08.049Z,19.63
2019-03-06T05:39:09.341Z,20.63
2019-03-06T05:44:09.895Z,21.77
2019-03-06T05:49:09.529Z,17.27
2019-03-06T05:54:09.247Z,19.17
2019-03-06T05:59:08.790Z,18.13
2019-03-06T06:04:08.322Z,16.90
2019-03-06T06:09:07.951Z,18.17
2019-03-06T06:14:07.518Z,21.33
2019-03-06T06:19:07.055Z,16.70
2019-03-06T06:24:11.258Z,18.63
2019-03-06T06:29:10.776Z,18.20
2019-03-06T06:34:10.328Z,15.93
2019-03-06T06:39:09.851Z,20.97
2019-03-06T06:44:16.301Z,17.13
2019-03-06T06:49:15.845Z,18.57
2019-03-06T06:54:29.959Z,16.10
2019-03-06T06:59:34.483Z,18.13
2019-03-06T07:05:31.115Z,15.80
2019-03-06T07:10:44.334Z,18.67
2019-03-06T07:15:59.682Z,16.50
2019-03-06T07:21:22.121Z,19.13
2019-03-06T07:26:40.793Z,15.70
2019-03-06T07:32:08.317Z,15.57
2019-03-06T07:37:11.413Z,15.67
2019-03-06T07:42:28.672Z,14.47
2019-03-06T07:47:52.974Z,17.13
2019-03-06T07:53:44.106Z,13.60
2019-03-06T07:58:54.282Z,17.50
2019-03-06T08:04:08.158Z,12.13
2019-03-06T08:09:10.644Z,14.10
2019-03-06T08:14:32.576Z,16.97
2019-03-06T08:19:51.242Z,10.80
2019-03-06T08:24:57.003Z,15.10
2019-03-06T08:29:56.612Z,15.43
2019-03-06T08:34:56.251Z,16.60
2019-03-06T08:39:55.787Z,11.63
2019-03-06T08:44:55.607Z,11.10
2019-03-06T08:50:04.875Z,11.87
2019-03-06T08:55:20.626Z,11.20
2019-03-06T09:00:39.597Z,14.50
2019-03-06T09:05:56.280Z,12.93
2019-03-06T09:11:03.364Z,15.67
2019-03-06T09:16:23.716Z,10.80
2019-03-06T09:21:57.967Z,11.47
2019-03-06T09:27:03.473Z,7.00
2019-03-06T09:32:28.085Z,12.87
2019-03-06T09:37:50.019Z,7.03
2019-03-06T09:43:02.763Z,10.60
2019-03-06T09:48:15.594Z,8.00
2019-03-06T09:53:34.051Z,9.03
2019-03-06T09:59:01.914Z,7.90
2019-03-06T10:04:36.219Z,8.13
2019-03-06T10:09:59.374Z,10.80
2019-03-06T10:15:11.344Z,16.67
2019-03-06T10:20:14.045Z,7.57
2019-03-06T10:25:14.043Z,7.60
2019-03-06T10:30:14.619Z,6.17
2019-03-06T10:35:15.966Z,7.47
2019-03-06T10:40:16.953Z,5.60
2019-03-06T10:45:17.162Z,5.40
2019-03-06T10:50:26.364Z,7.23
2019-03-06T10:55:20.162Z,7.97
2019-03-06T11:00:24.307Z,11.60
2019-03-06T11:05:29.139Z,8.47
2019-03-06T11:10:30.554Z,8.40
2019-03-06T11:15:30.933Z,6.30
2019-03-06T11:20:32.153Z,5.73
2019-03-06T11:25:33.577Z,5.43
2019-03-06T11:30:36.726Z,6.50
2019-03-06T11:35:36.510Z,3.57
2019-03-06T11:40:37.287Z,5.20
2019-03-06T11:45:38.478Z,6.67
2019-03-06T11:50:40.792Z,4.40
2019-03-06T11:55:39.682Z,18.63
2019-03-06T12:00:43.593Z,6.70
2019-03-06T12:05:43.613Z,3.60
2019-03-06T12:10:43.707Z,5.97
2019-03-06T12:15:46.161Z,5.53
2019-03-06T12:20:45.871Z,4.03
2019-03-06T12:25:45.631Z,4.27
2019-03-06T12:30:45.247Z,5.43
2019-03-06T12:35:44.862Z,4.20
2019-03-06T12:40:44.415Z,4.73
2019-03-06T12:46:05.570Z,4.67
2019-03-06T12:51:05.443Z,7.67
2019-03-06T12:56:05.538Z,4.00
2019-03-06T13:01:05.525Z,4.63
2019-03-06T13:06:05.422Z,4.67
2019-03-06T13:11:05.333Z,2.50
2019-03-06T13:16:05.017Z,6.60
2019-03-06T13:21:07.053Z,3.40
2019-03-06T13:26:10.246Z,3.53
2019-03-06T13:31:08.130Z,6.03
2019-03-06T13:36:08.052Z,2.17
2019-03-06T13:41:07.759Z,2.57
2019-03-06T13:46:07.533Z,2.50
2019-03-06T13:51:07.159Z,4.40
2019-03-06T13:56:07.129Z,3.13
2019-03-06T14:01:09.556Z,3.33
2019-03-06T14:06:09.527Z,7.03
2019-03-06T14:11:09.151Z,2.53
2019-03-06T14:16:09.151Z,3.53
2019-03-06T14:21:08.948Z,7.07
2019-03-06T14:26:08.500Z,4.20
2019-03-06T14:31:10.526Z,3.50
2019-03-06T14:36:09.605Z,5.60
2019-03-06T14:41:09.231Z,8.20
2019-03-06T14:46:16.279Z,3.70
2019-03-06T14:51:11.082Z,4.60
2019-03-06T14:56:10.707Z,5.70
2019-03-06T15:01:10.280Z,14.90
2019-03-06T15:06:09.971Z,6.13
2019-03-06T15:11:09.559Z,6.50
2019-03-06T15:16:09.839Z,5.90
2019-03-06T15:21:10.367Z,3.43
2019-03-06T15:26:10.637Z,3.90
2019-03-06T15:31:10.508Z,4.50
2019-03-06T15:36:10.122Z,5.20
2019-03-06T15:41:09.662Z,5.23
2019-03-06T15:46:09.269Z,5.97
2019-03-06T15:51:08.823Z,8.30
2019-03-06T15:56:08.874Z,4.47
2019-03-06T16:01:08.502Z,8.03
2019-03-06T16:06:08.042Z,8.33
2019-03-06T16:11:08.418Z,6.27
2019-03-06T16:16:08.239Z,9.00
2019-03-06T16:21:09.111Z,6.03
2019-03-06T16:26:08.730Z,7.00
2019-03-06T16:31:08.521Z,6.40
2019-03-06T16:36:08.406Z,10.37
2019-03-06T16:41:07.975Z,15.53
2019-03-06T16:46:07.695Z,12.93
2019-03-06T16:51:09.383Z,12.20
2019-03-06T16:56:09.297Z,10.70
2019-03-06T17:01:09.103Z,11.63
2019-03-06T17:06:08.933Z,12.50
2019-03-06T17:11:10.270Z,11.83
2019-03-06T17:16:10.645Z,10.43
2019-03-06T17:21:10.443Z,10.43
2019-03-06T17:26:10.133Z,8.70
2019-03-06T17:31:09.674Z,9.73
2019-03-06T17:36:09.281Z,8.97
2019-03-06T17:41:09.170Z,7.07
2019-03-06T17:46:09.730Z,9.07
2019-03-06T17:51:10.311Z,9.13
2019-03-06T17:56:10.106Z,7.40
2019-03-06T18:01:15.116Z,11.03
2019-03-06T18:06:14.833Z,10.97
2019-03-06T18:11:14.455Z,8.83
2019-03-06T18:16:14.082Z,8.43
2019-03-06T18:21:13.623Z,6.60
2019-03-06T18:26:13.234Z,5.93
2019-03-06T18:31:12.849Z,9.40
2019-03-06T18:36:13.069Z,9.10
2019-03-06T18:41:12.674Z,10.00
2019-03-06T18:46:12.285Z,7.47
2019-03-06T18:51:11.978Z,8.20
2019-03-06T18:56:11.586Z,5.87
2019-03-06T19:01:11.203Z,5.90
2019-03-06T19:06:11.122Z,10.67
2019-03-06T19:11:17.040Z,6.37
2019-03-06T19:16:12.096Z,6.30
2019-03-06T19:21:11.808Z,6.30
2019-03-06T19:26:11.413Z,10.70
2019-03-06T19:31:12.434Z,6.17
2019-03-06T19:36:12.037Z,7.67
2019-03-06T19:41:11.643Z,6.77
2019-03-06T19:46:11.178Z,6.00
2019-03-06T19:51:11.486Z,5.23
2019-03-06T19:56:11.311Z,3.83
2019-03-06T20:01:10.910Z,9.00
2019-03-06T20:06:10.522Z,6.13
2019-03-06T20:11:10.064Z,8.13
2019-03-06T20:16:09.683Z,6.43
2019-03-06T20:21:09.221Z,6.83
2019-03-06T20:26:13.832Z,6.17
2019-03-06T20:31:10.218Z,7.77
2019-03-06T20:36:10.794Z,3.30
2019-03-06T20:41:10.386Z,6.93
2019-03-06T20:46:09.922Z,6.23
2019-03-06T20:51:09.562Z,7.77
2019-03-06T20:56:09.229Z,7.20
2019-03-06T21:01:08.850Z,6.40
2019-03-06T21:06:08.555Z,4.63
2019-03-06T21:11:08.235Z,4.03
2019-03-06T21:16:08.210Z,5.07
2019-03-06T21:21:08.158Z,5.60
2019-03-06T21:26:08.129Z,4.07
2019-03-06T21:31:07.804Z,5.50
2019-03-06T21:36:08.329Z,4.80
2019-03-06T21:41:08.883Z,3.37
2019-03-06T21:46:08.584Z,5.80
2019-03-06T21:51:08.382Z,4.27
2019-03-06T21:56:11.516Z,5.40
2019-03-06T22:01:14.131Z,3.97
2019-03-06T22:06:14.474Z,4.87
2019-03-06T22:11:14.070Z,4.93
2019-03-06T22:16:13.618Z,7.63
2019-03-06T22:21:13.238Z,7.80
2019-03-06T22:26:12.777Z,5.63
2019-03-06T22:31:12.590Z,6.83
2019-03-06T22:36:12.279Z,4.63
2019-03-06T22:41:12.078Z,4.80
2019-03-06T22:46:11.907Z,7.63
2019-03-06T22:51:11.538Z,5.07
2019-03-06T22:56:11.148Z,10.27
2019-03-06T23:01:24.085Z,6.30
2019-03-06T23:06:25.673Z,6.50
2019-03-06T23:11:25.382Z,4.07
2019-03-06T23:16:24.913Z,7.40
2019-03-06T23:21:24.601Z,5.53
2019-03-06T23:26:24.206Z,11.03
2019-03-06T23:31:24.891Z,7.00
2019-03-06T23:36:24.490Z,6.10
2019-03-06T23:41:24.057Z,6.20
2019-03-06T23:46:23.600Z,6.27
2019-03-06T23:51:28.304Z,5.73
2019-03-06T23:56:27.923Z,5.27
